WetterOnline ( https://www.wetteronline.de )

Wetter aktuell Fischland

Aktuelles Wetter: Barth (7m)

6-stündlich | Neueste Meldungen
Ortszeit Temperatur Wetter
So, 25.09. 8:00 11.4° C bewölkt
So, 25.09. 2:00 10.4° C bewölkt
Sa, 24.09. 20:00 11.3° C wolkig
Sa, 24.09. 14:00 16.9° C wolkig
Sa, 24.09. 8:00 8.8° C bedeckt
Sa, 24.09. 2:00 10.6° C bedeckt
Fr, 23.09. 20:00 12.7° C bedeckt
Fr, 23.09. 14:00 16.2° C wolkig
Ortszeit Temperatur Wetter
So, 25.09. 10:30 13.1° C bedeckt
So, 25.09. 10:20 13.1° C bedeckt
So, 25.09. 10:10 13.5° C bedeckt
So, 25.09. 10:00 12.8° C bedeckt
So, 25.09. 9:50 12.8° C bedeckt
So, 25.09. 9:40 12.6° C Sprühregen
So, 25.09. 9:30 11.9° C bedeckt
So, 25.09. 9:00 11.7° C bedeckt
So, 25.09. 8:30 11.5° C bedeckt
So, 25.09. 8:00 11.4° C bewölkt
So, 25.09. 7:30 11.2° C bedeckt
Ortszeit Relative Feuchte Sichtweite
So, 25.09. 8:00 96% 7 km
So, 25.09. 2:00 95% 18 km
Sa, 24.09. 20:00 88% 55 km
Sa, 24.09. 14:00 59% 30 km
Sa, 24.09. 8:00 87% 45 km
Sa, 24.09. 2:00 81% 55 km
Fr, 23.09. 20:00 73% >70 km
Fr, 23.09. 14:00 55% >70 km
Ortszeit Relative Feuchte Sichtweite
So, 25.09. 10:30 87% 19 km
So, 25.09. 10:20 87% -
So, 25.09. 10:10 89% -
So, 25.09. 10:00 92% 12 km
So, 25.09. 9:50 92% -
So, 25.09. 9:40 96% -
So, 25.09. 9:30 95% 8 km
So, 25.09. 9:00 95% 9 km
So, 25.09. 8:30 95% 9 km
So, 25.09. 8:00 96% 7 km
So, 25.09. 7:30 97% 6 km
Ortszeit Niederschlagsmenge Niederschlagsart
So, 25.09. 8:00 0.1 l/m2 in 12 Std. Regen
So, 25.09. 2:00 0.1 l/m2 in 6 Std. Regen
Sa, 24.09. 20:00 0.0 l/m2 in 12 Std. -
Sa, 24.09. 14:00 0.0 l/m2 in 6 Std. -
Sa, 24.09. 8:00 0.0 l/m2 in 12 Std. -
Sa, 24.09. 2:00 0.0 l/m2 in 6 Std. -
Fr, 23.09. 20:00 0.0 l/m2 in 12 Std. -
Fr, 23.09. 14:00 0.0 l/m2 in 6 Std. -
Ortszeit Niederschlagsmenge Niederschlagsart
So, 25.09. 10:30 0.0 l/m2 in 1 Std. -
So, 25.09. 10:20 keine Meldung -
So, 25.09. 10:10 keine Meldung -
So, 25.09. 10:00 0.1 l/m2 in 1 Std. Regen
So, 25.09. 9:50 keine Meldung -
So, 25.09. 9:40 keine Meldung -
So, 25.09. 9:30 0.0 l/m2 in 1 Std. -
So, 25.09. 9:00 0.1 l/m2 in 1 Std. Sprühregen
So, 25.09. 8:30 0.1 l/m2 in 1 Std. Schnee
So, 25.09. 8:00 0.0 l/m2 in 1 Std. Regen
So, 25.09. 7:30 0.0 l/m2 in 1 Std. -
Ortszeit Stärke Spitze Richtung
km/h Bft. km/h Grad Sektor
So, 25.09. 8:00 4 1 11 150° SO
So, 25.09. 2:00 6 1 9 130° SO
Sa, 24.09. 20:00 6 1 19 160° S
Sa, 24.09. 14:00 11 2 22 220° SW
Sa, 24.09. 8:00 7 2 11 170° S
Sa, 24.09. 2:00 7 2 11 150° SO
Fr, 23.09. 20:00 6 1 26 150° SO
Fr, 23.09. 14:00 14 3 29 180° S
Ortszeit Stärke Spitze Richtung
km/h Bft. km/h Grad Sektor
So, 25.09. 10:30 7 2 11 150° SO
So, 25.09. 10:20 7 2 - 150° SO
So, 25.09. 10:10 7 2 - 150° SO
So, 25.09. 10:00 7 2 11 150° SO
So, 25.09. 9:50 7 2 - 150° SO
So, 25.09. 9:40 7 2 - 150° SO
So, 25.09. 9:30 7 2 11 160° S
So, 25.09. 9:00 6 1 9 140° SO
So, 25.09. 8:30 4 1 7 150° SO
So, 25.09. 8:00 4 1 7 150° SO
So, 25.09. 7:30 4 1 4 120° SO
Ortszeit Untergrenze Bedeckung Gattung
total tief tief mittel hoch
So, 25.09. 8:00 510 m 7/8 7/8 - - -
So, 25.09. 2:00 2100 m 8/8 6/8 - - -
Sa, 24.09. 20:00 1500 m 8/8 1/8 - - -
Sa, 24.09. 14:00 5700 m 7/8 3/8 - - -
Sa, 24.09. 8:00 4800 m 8/8 8/8 - - -
Sa, 24.09. 2:00 4200 m 8/8 8/8 - - -
Fr, 23.09. 20:00 4500 m 8/8 8/8 - - -
Fr, 23.09. 14:00 6600 m 8/8 8/8 - - -
Ortszeit Bedeckungsgrad in Achtel und Wolkenuntergrenze
So, 25.09. 10:30 1(210m) 8(2100m) 8(3900m)
So, 25.09. 10:20 1(210m) 8(2100m) 8(3900m)
So, 25.09. 10:10 8
So, 25.09. 10:00 3(870m) 8(1110m) 8(4500m)
So, 25.09. 9:50 3(870m) 8(1110m) 8(4500m)
So, 25.09. 9:40 7
So, 25.09. 9:30 8(780m)
So, 25.09. 9:00 8(600m)
So, 25.09. 8:30 8(570m)
So, 25.09. 8:00 7(510m)
So, 25.09. 7:30 7(510m) 8(750m)
Ortszeit Luftdruck NN (hPa) Tendenz (hPa in 3 Std.)
So, 25.09. 8:00 1013 - 0,2
So, 25.09. 2:00 1013 - 0,2
Sa, 24.09. 20:00 1013 + 0,2
Sa, 24.09. 14:00 1013 - 0,1
Sa, 24.09. 8:00 1013 - 0,2
Sa, 24.09. 2:00 1014 - 0,9
Fr, 23.09. 20:00 1015 - 0,7
Fr, 23.09. 14:00 1018 - 1,4
Ortszeit Luftdruck NN (hPa) Tendenz (hPa in 3 Std.)
So, 25.09. 10:30 1013 - 0,2
So, 25.09. 10:20 1013 keine Meldung
So, 25.09. 10:10 1013 keine Meldung
So, 25.09. 10:00 1013 - 0,1
So, 25.09. 9:50 1013 keine Meldung
So, 25.09. 9:40 1013 keine Meldung
So, 25.09. 9:30 1013 0,0
So, 25.09. 9:00 1013 - 0,1
So, 25.09. 8:30 1013 - 0,2
So, 25.09. 8:00 1013 - 0,2
So, 25.09. 7:30 1013 - 0,3
Ortszeit Schneehöhe (cm)
So, 25.09. 8:00 0
So, 25.09. 2:00 0
Sa, 24.09. 20:00 0
Sa, 24.09. 14:00 0
Sa, 24.09. 8:00 0
Sa, 24.09. 2:00 0
Fr, 23.09. 20:00 0
Fr, 23.09. 14:00 0
Ortszeit Schneehöhe (cm)
So, 25.09. 10:30 0
So, 25.09. 10:20 0
So, 25.09. 10:10 0
So, 25.09. 10:00 0
So, 25.09. 9:50 0
So, 25.09. 9:40 0
So, 25.09. 9:30 0
So, 25.09. 9:00 0
So, 25.09. 8:30 0
So, 25.09. 8:00 0
So, 25.09. 7:30 0
Link zu dieser Seite / Seite empfehlen

Das Wetter in ...